You are listening to:
KLOU Del/Gnd/Twr - Louisville, Kentucky, United States

KLOU 021253Z 19006KT 5SM BR CLR 09/08 A2995 RMK AO2 SLP141 T00890078

If stream doesn't start automatically press the play button
If stream stops then reload player then press play